Time;durP1;ratioP1;P1;durP2;ratioP2;P2;SDS_P1;SDS_P2;PMS_P1;PMS_P2;Temp;Humidity;BMP_temperature;BMP_pressure;BME280_temperature;BME280_humidity;BME280_pressure;Samples;Min_cycle;Max_cycle;Signal;HPM_P1;HPM_P2
2023/05/13 00:01:20;;;;;;;15.43;9.85;;;13.50;74.90;;;;;;4790706;30;20139;-95
2023/05/13 00:03:47;;;;;;;16.23;9.23;;;13.40;75.10;;;;;;4790615;30;20054;-95
2023/05/13 00:06:14;;;;;;;14.93;8.80;;;13.40;75.10;;;;;;4790918;30;20062;-96
2023/05/13 00:08:42;;;;;;;14.33;8.50;;;13.40;74.80;;;;;;4791135;30;20051;-96
2023/05/13 00:11:09;;;;;;;16.05;9.32;;;13.40;74.60;;;;;;4790639;29;20077;-95
2023/05/13 00:13:36;;;;;;;15.85;8.98;;;13.40;74.90;;;;;;4790642;30;20079;-95
2023/05/13 00:16:04;;;;;;;16.02;8.45;;;13.30;74.80;;;;;;4791247;30;20060;-95
2023/05/13 00:18:32;;;;;;;16.63;8.45;;;13.40;74.60;;;;;;4790503;30;20079;-96
2023/05/13 00:20:59;;;;;;;14.60;8.90;;;13.40;74.30;;;;;;4789955;30;20056;-95
2023/05/13 00:23:26;;;;;;;13.63;8.20;;;13.40;74.30;;;;;;4789909;30;20052;-95
2023/05/13 00:25:53;;;;;;;17.77;10.30;;;13.30;74.40;;;;;;4789785;30;20056;-96
2023/05/13 00:28:20;;;;;;;19.73;10.95;;;13.30;74.70;;;;;;4790658;30;20052;-96
2023/05/13 00:30:48;;;;;;;15.50;9.45;;;13.30;75.10;;;;;;4791109;30;20040;-95
2023/05/13 00:33:15;;;;;;;16.23;9.70;;;13.20;74.90;;;;;;4790757;30;20052;-96
2023/05/13 00:35:43;;;;;;;14.85;8.30;;;13.20;74.80;;;;;;4791010;30;20052;-96
2023/05/13 00:38:10;;;;;;;16.08;8.93;;;13.20;74.60;;;;;;4794030;30;20058;-96
2023/05/13 00:40:41;;;;;;;15.60;9.52;;;13.20;74.60;;;;;;4796295;30;20047;-95
2023/05/13 00:43:09;;;;;;;16.30;9.07;;;13.30;74.60;;;;;;4796000;30;20075;-96
2023/05/13 00:45:37;;;;;;;16.53;8.97;;;13.30;74.50;;;;;;4794378;30;20483;-96
2023/05/13 00:48:06;;;;;;;14.30;8.27;;;13.30;74.40;;;;;;4792248;30;20064;-96
2023/05/13 00:50:33;;;;;;;14.38;8.77;;;13.30;74.30;;;;;;4791085;29;20146;-96
2023/05/13 00:53:03;;;;;;;15.40;8.75;;;13.30;74.30;;;;;;4797796;30;20064;-96
2023/05/13 00:55:31;;;;;;;15.35;9.00;;;13.20;74.50;;;;;;4797193;30;20047;-95
2023/05/13 00:57:58;;;;;;;12.93;8.00;;;13.20;74.60;;;;;;4795306;30;20060;-96
2023/05/13 01:00:29;;;;;;;13.43;7.25;;;13.10;74.70;;;;;;4795343;30;20077;-96
2023/05/13 01:03:07;;;;;;;14.70;8.20;;;13.10;74.40;;;;;;4792811;30;20111;-95
2023/05/13 01:06:09;;;;;;;14.68;8.10;;;13.10;74.40;;;;;;4790442;30;20082;-95
2023/05/13 01:08:46;;;;;;;16.52;9.60;;;13.00;74.80;;;;;;4786894;30;20047;-96
2023/05/13 01:11:17;;;;;;;15.47;9.00;;;12.90;75.30;;;;;;4788789;29;20154;-96
2023/05/13 01:13:48;;;;;;;15.93;8.63;;;12.80;75.30;;;;;;4789751;30;20078;-95
2023/05/13 01:16:22;;;;;;;15.20;8.68;;;12.80;75.30;;;;;;4787031;30;20048;-96
2023/05/13 01:18:57;;;;;;;15.30;8.10;;;12.80;75.20;;;;;;4787035;30;20507;-96
2023/05/13 01:21:26;;;;;;;16.02;7.85;;;12.80;74.70;;;;;;4787143;30;20422;-95
2023/05/13 01:23:54;;;;;;;14.50;7.77;;;12.80;74.50;;;;;;4787443;30;20074;-95
2023/05/13 01:26:23;;;;;;;13.63;7.70;;;12.70;74.40;;;;;;4789166;30;20081;-94
2023/05/13 01:28:50;;;;;;;14.00;8.10;;;12.60;74.50;;;;;;4789090;30;20055;-95
2023/05/13 01:31:20;;;;;;;13.88;7.82;;;12.60;74.60;;;;;;4788920;30;20066;-95
2023/05/13 01:33:51;;;;;;;12.52;7.68;;;12.60;74.90;;;;;;4787242;30;20044;-96
2023/05/13 01:36:18;;;;;;;14.43;8.23;;;12.60;74.90;;;;;;4787253;30;20047;-95
2023/05/13 01:38:46;;;;;;;14.07;8.23;;;12.60;74.80;;;;;;4787583;30;20062;-96
2023/05/13 01:41:14;;;;;;;13.90;8.20;;;12.60;74.60;;;;;;4788223;30;20143;-96
2023/05/13 01:43:41;;;;;;;15.38;8.75;;;12.60;74.70;;;;;;4787777;30;20044;-95
2023/05/13 01:46:12;;;;;;;14.93;8.75;;;12.50;74.80;;;;;;4788107;30;20043;-96
2023/05/13 01:48:39;;;;;;;16.67;9.33;;;12.50;75.30;;;;;;4787790;30;20048;-95
2023/05/13 01:51:08;;;;;;;15.88;8.88;;;12.40;75.50;;;;;;4788411;30;20423;-96
2023/05/13 01:53:35;;;;;;;16.00;9.15;;;12.40;75.60;;;;;;4789041;30;20070;-96
2023/05/13 01:56:03;;;;;;;15.75;9.00;;;12.40;75.80;;;;;;4788232;30;20048;-96
2023/05/13 01:58:30;;;;;;;15.75;8.57;;;12.40;75.50;;;;;;4787942;30;20040;-95
2023/05/13 02:00:57;;;;;;;15.63;9.67;;;12.50;75.50;;;;;;4795492;29;20054;-96
2023/05/13 02:03:25;;;;;;;16.50;9.30;;;12.50;75.50;;;;;;4783668;30;20052;-96
2023/05/13 02:05:53;;;;;;;15.57;9.25;;;12.50;75.50;;;;;;4798221;30;20052;-95
2023/05/13 02:08:24;;;;;;;16.48;9.43;;;12.50;75.60;;;;;;4784353;30;20074;-96
2023/05/13 02:10:59;;;;;;;17.38;9.32;;;12.40;75.50;;;;;;4799459;29;20079;-96
2023/05/13 02:13:30;;;;;;;15.07;8.93;;;12.40;75.60;;;;;;4799835;30;20062;-96
2023/05/13 02:15:59;;;;;;;14.82;9.25;;;12.40;75.70;;;;;;4785429;30;20044;-96
2023/05/13 02:18:27;;;;;;;15.68;8.98;;;12.40;75.70;;;;;;4784139;30;20052;-95
2023/05/13 02:20:56;;;;;;;14.77;8.93;;;12.30;75.90;;;;;;4799453;30;20056;-96
2023/05/13 02:23:23;;;;;;;16.42;9.90;;;12.30;75.90;;;;;;4799363;30;20055;-96
2023/05/13 02:25:51;;;;;;;16.20;9.40;;;12.30;75.90;;;;;;4799634;30;20052;-96
2023/05/13 02:28:18;;;;;;;15.77;9.15;;;12.40;75.90;;;;;;4797627;30;20059;-96
2023/05/13 02:30:46;;;;;;;14.07;8.60;;;12.30;76.00;;;;;;4793882;30;20423;-95
2023/05/13 02:33:13;;;;;;;14.90;8.98;;;12.40;75.90;;;;;;4790933;30;20104;-96
2023/05/13 02:35:41;;;;;;;14.57;8.88;;;12.30;75.90;;;;;;4792178;30;20052;-95
2023/05/13 02:38:11;;;;;;;15.07;8.40;;;12.20;75.90;;;;;;4791567;30;20048;-96
2023/05/13 02:40:39;;;;;;;13.82;8.10;;;12.30;75.70;;;;;;4794977;30;20515;-95
2023/05/13 02:43:07;;;;;;;16.02;9.23;;;12.30;75.50;;;;;;4798796;30;20056;-96
2023/05/13 02:45:46;;;;;;;13.85;8.00;;;12.30;75.40;;;;;;4781392;30;20052;-95
2023/05/13 02:48:14;;;;;;;14.43;8.02;;;12.30;75.40;;;;;;4794876;30;20166;-95
2023/05/13 02:50:43;;;;;;;18.87;8.63;;;12.30;75.40;;;;;;4795536;30;20119;-95
2023/05/13 02:53:11;;;;;;;15.32;7.80;;;12.40;75.30;;;;;;4791445;30;20055;-95
2023/05/13 02:55:44;;;;;;;14.85;8.35;;;12.40;75.10;;;;;;4786004;30;20138;-95
2023/05/13 02:58:12;;;;;;;13.15;7.57;;;12.50;75.00;;;;;;4786786;30;20048;-96
2023/05/13 03:00:42;;;;;;;13.98;7.88;;;12.50;74.90;;;;;;4787448;30;20472;-95
2023/05/13 03:03:09;;;;;;;14.80;8.03;;;12.50;75.00;;;;;;4787769;30;20563;-94
2023/05/13 03:05:36;;;;;;;13.60;7.72;;;12.50;75.00;;;;;;4789498;30;20051;-95
2023/05/13 03:08:04;;;;;;;13.27;7.28;;;12.50;74.90;;;;;;4792016;30;20055;-96
2023/05/13 03:10:32;;;;;;;12.38;7.30;;;12.50;74.70;;;;;;4796933;29;20063;-95
2023/05/13 03:12:59;;;;;;;13.82;7.32;;;12.50;74.60;;;;;;4795076;29;20055;-95
2023/05/13 03:15:27;;;;;;;18.60;8.20;;;12.50;74.70;;;;;;4794665;30;20086;-95
2023/05/13 03:17:54;;;;;;;13.35;7.70;;;12.60;74.90;;;;;;4794143;30;20052;-95
2023/05/13 03:20:21;;;;;;;15.98;7.93;;;12.50;74.90;;;;;;4793229;30;20571;-96
2023/05/13 03:22:51;;;;;;;20.30;7.93;;;12.50;75.30;;;;;;4794559;30;20059;-96
2023/05/13 03:25:19;;;;;;;13.02;7.35;;;12.50;75.40;;;;;;4794997;30;20094;-96
2023/05/13 03:37:11;;;;;;;14.23;8.32;;;12.40;75.50;;;;;;4741542;30;20113;-96
2023/05/13 03:39:41;;;;;;;16.08;7.90;;;12.30;76.00;;;;;;4745346;30;20568;-95
2023/05/13 03:42:08;;;;;;;14.60;7.95;;;12.30;75.90;;;;;;4795172;30;20052;-96
2023/05/13 03:44:36;;;;;;;13.80;7.80;;;12.30;75.90;;;;;;4793419;30;20158;-95
2023/05/13 03:47:03;;;;;;;14.90;8.02;;;12.40;75.80;;;;;;4790208;30;20056;-95
2023/05/13 03:49:31;;;;;;;12.82;8.23;;;12.40;75.80;;;;;;4790829;30;20087;-95
2023/05/13 03:51:58;;;;;;;13.82;8.05;;;12.40;75.90;;;;;;4790823;30;20499;-94
2023/05/13 03:54:28;;;;;;;14.55;8.45;;;12.40;75.90;;;;;;4792179;30;20055;-95
2023/05/13 03:56:55;;;;;;;14.47;8.50;;;12.40;75.90;;;;;;4797189;30;20056;-95
2023/05/13 03:59:26;;;;;;;16.52;9.32;;;12.50;76.00;;;;;;4782017;30;20159;-95
2023/05/13 04:01:53;;;;;;;13.73;8.80;;;12.50;76.00;;;;;;4795403;30;20055;-95
2023/05/13 04:04:21;;;;;;;13.27;7.68;;;12.50;76.00;;;;;;4794827;30;20063;-95
2023/05/13 04:06:51;;;;;;;12.35;6.60;;;12.50;75.60;;;;;;4794537;30;20059;-94
2023/05/13 04:09:19;;;;;;;11.30;6.17;;;12.60;74.90;;;;;;4793717;30;20059;-95
2023/05/13 04:11:46;;;;;;;13.23;6.13;;;12.60;73.90;;;;;;4793777;29;20056;-95
2023/05/13 04:14:16;;;;;;;11.27;6.38;;;12.60;72.90;;;;;;4797399;30;20078;-95
2023/05/13 04:16:44;;;;;;;10.98;6.40;;;12.60;73.20;;;;;;4795781;30;20084;-95
2023/05/13 04:19:14;;;;;;;11.57;5.70;;;12.70;73.60;;;;;;4781680;30;20055;-96
2023/05/13 04:21:41;;;;;;;14.93;6.17;;;12.80;73.80;;;;;;4796759;30;20082;-96
2023/05/13 04:24:12;;;;;;;12.05;5.43;;;12.80;73.60;;;;;;4797117;29;20109;-95
2023/05/13 04:26:39;;;;;;;10.45;5.97;;;12.90;73.30;;;;;;4797112;30;20052;-95
2023/05/13 04:29:10;;;;;;;11.40;5.95;;;12.90;73.50;;;;;;4797653;30;20052;-95
2023/05/13 04:31:43;;;;;;;10.95;6.03;;;13.00;73.70;;;;;;4799027;30;20062;-95
2023/05/13 04:34:12;;;;;;;12.83;5.60;;;13.00;74.30;;;;;;4784257;30;20582;-95
2023/05/13 04:36:47;;;;;;;10.35;4.70;;;13.10;73.80;;;;;;4798215;30;20062;-95
2023/05/13 04:39:15;;;;;;;7.95;4.10;;;13.10;73.10;;;;;;4797483;30;20052;-95
2023/05/13 04:41:43;;;;;;;9.05;4.53;;;13.20;71.80;;;;;;4794120;30;20075;-95
2023/05/13 04:44:10;;;;;;;8.55;3.92;;;13.20;71.90;;;;;;4792559;30;20051;-95
2023/05/13 04:46:39;;;;;;;8.43;3.90;;;13.30;71.60;;;;;;4794859;30;20083;-96
2023/05/13 04:49:06;;;;;;;7.72;3.70;;;13.40;70.70;;;;;;4795837;30;20059;-95
2023/05/13 04:51:34;;;;;;;8.32;3.63;;;13.50;70.20;;;;;;4795745;30;20058;-95
2023/05/13 04:54:02;;;;;;;8.38;3.83;;;13.50;69.70;;;;;;4795277;30;20058;-95
2023/05/13 04:56:30;;;;;;;8.38;3.58;;;13.50;68.40;;;;;;4795362;30;20047;-95
2023/05/13 04:58:57;;;;;;;8.23;3.50;;;13.50;68.90;;;;;;4794868;30;20105;-95
2023/05/13 05:01:24;;;;;;;8.38;3.03;;;13.50;67.90;;;;;;4793325;30;20060;-95
2023/05/13 05:03:52;;;;;;;6.30;2.95;;;13.50;68.60;;;;;;4789283;30;20056;-95
2023/05/13 05:06:20;;;;;;;8.30;2.67;;;13.60;67.80;;;;;;4789019;30;20093;-95
2023/05/13 05:08:48;;;;;;;6.82;2.65;;;13.70;66.00;;;;;;4789228;30;20047;-96
2023/05/13 05:11:15;;;;;;;5.60;2.40;;;13.70;67.30;;;;;;4790299;29;20060;-95
2023/05/13 05:13:42;;;;;;;8.40;2.75;;;13.80;66.00;;;;;;4788820;30;20048;-95
2023/05/13 05:16:14;;;;;;;7.03;2.40;;;13.80;65.30;;;;;;4789889;30;20075;-96
2023/05/13 05:18:42;;;;;;;5.65;2.10;;;13.90;64.10;;;;;;4789357;30;20082;-95
2023/05/13 05:21:11;;;;;;;6.22;2.42;;;13.80;63.20;;;;;;4789373;30;20079;-95
2023/05/13 05:23:38;;;;;;;6.13;2.50;;;13.90;63.10;;;;;;4788981;30;20123;-95
2023/05/13 05:26:06;;;;;;;5.97;2.55;;;13.90;62.80;;;;;;4789552;30;20529;-96
2023/05/13 05:28:42;;;;;;;6.45;2.70;;;13.90;62.30;;;;;;4790413;30;20070;-95
2023/05/13 05:31:09;;;;;;;8.13;3.50;;;13.90;62.10;;;;;;4791650;30;20043;-96
2023/05/13 05:33:39;;;;;;;9.10;3.58;;;14.00;61.80;;;;;;4795323;30;20465;-96
2023/05/13 05:36:06;;;;;;;7.77;2.90;;;14.00;63.10;;;;;;4798463;29;20066;-96
2023/05/13 05:38:34;;;;;;;6.50;2.88;;;14.10;62.20;;;;;;4799559;30;20051;-95
2023/05/13 05:41:03;;;;;;;7.65;2.90;;;14.20;61.80;;;;;;4799483;30;20062;-96
2023/05/13 05:43:32;;;;;;;8.88;2.35;;;14.20;60.90;;;;;;4800958;30;20052;-96
2023/05/13 05:46:05;;;;;;;5.75;2.00;;;14.30;60.70;;;;;;4802405;30;20062;-96
2023/05/13 05:48:36;;;;;;;5.90;2.00;;;14.50;59.50;;;;;;4802339;30;20080;-95
2023/05/13 05:51:05;;;;;;;7.10;2.00;;;14.50;59.10;;;;;;4800878;30;20470;-95
2023/05/13 05:53:39;;;;;;;6.72;1.65;;;14.60;59.50;;;;;;4800201;30;20473;-95
2023/05/13 05:56:10;;;;;;;5.72;1.70;;;14.70;58.60;;;;;;4784322;30;20119;-96
2023/05/13 05:58:38;;;;;;;4.88;2.00;;;14.80;58.50;;;;;;4798365;30;20121;-95
2023/05/13 06:01:05;;;;;;;5.57;1.70;;;14.90;59.10;;;;;;4790851;30;20052;-95
2023/05/13 06:03:32;;;;;;;5.43;1.75;;;15.00;58.30;;;;;;4786903;30;20079;-96
2023/05/13 06:06:00;;;;;;;5.70;1.80;;;15.00;57.30;;;;;;4787707;30;20062;-95
2023/05/13 06:08:31;;;;;;;5.47;1.80;;;15.10;57.20;;;;;;4787233;30;20055;-95
2023/05/13 06:10:59;;;;;;;5.57;1.80;;;15.20;55.90;;;;;;4787987;29;20430;-95
2023/05/13 06:13:26;;;;;;;6.07;1.60;;;15.20;56.50;;;;;;4788054;30;20142;-95
2023/05/13 06:15:54;;;;;;;5.28;1.92;;;15.20;57.60;;;;;;4789773;30;20052;-95
2023/05/13 06:18:22;;;;;;;6.38;1.92;;;15.40;58.20;;;;;;4792169;30;20058;-95
2023/05/13 06:20:49;;;;;;;4.28;1.60;;;15.40;55.70;;;;;;4791307;30;20056;-95
2023/05/13 06:23:17;;;;;;;6.32;1.85;;;15.50;54.90;;;;;;4793175;30;20090;-95
2023/05/13 06:25:45;;;;;;;5.60;1.63;;;15.50;56.50;;;;;;4789547;30;20419;-94
2023/05/13 06:28:13;;;;;;;20.90;3.35;;;15.60;56.70;;;;;;4786601;30;20047;-95
2023/05/13 06:30:40;;;;;;;15.45;2.50;;;15.60;56.70;;;;;;4788579;30;20051;-95
2023/05/13 06:33:11;;;;;;;4.85;1.63;;;15.80;56.00;;;;;;4786045;30;20048;-94
2023/05/13 06:35:38;;;;;;;4.63;2.05;;;15.80;55.30;;;;;;4787059;30;20048;-94
2023/05/13 06:38:07;;;;;;;5.53;1.80;;;15.90;54.90;;;;;;4785634;30;20539;-94
2023/05/13 06:40:34;;;;;;;6.00;2.08;;;15.90;55.50;;;;;;4785538;30;20067;-94
2023/05/13 06:43:05;;;;;;;5.90;2.17;;;16.00;55.40;;;;;;4785572;30;20086;-93
2023/05/13 06:45:36;;;;;;;5.82;1.80;;;16.00;54.50;;;;;;4785720;30;20048;-93
2023/05/13 06:48:04;;;;;;;5.93;1.80;;;16.00;54.20;;;;;;4784595;30;20104;-93
2023/05/13 06:50:31;;;;;;;5.97;1.87;;;16.10;53.90;;;;;;4785527;30;20500;-95
2023/05/13 06:52:58;;;;;;;6.60;1.70;;;16.20;53.30;;;;;;4785621;30;20586;-94
2023/05/13 06:55:26;;;;;;;3.90;1.40;;;16.20;53.50;;;;;;4789087;30;20043;-93
2023/05/13 06:57:53;;;;;;;6.60;1.70;;;16.40;53.40;;;;;;4789543;30;20090;-96
2023/05/13 07:00:20;;;;;;;4.03;1.40;;;16.40;52.80;;;;;;4789001;30;20052;-93
2023/05/13 07:02:48;;;;;;;5.10;1.90;;;16.40;52.20;;;;;;4786218;30;20070;-95
2023/05/13 07:05:15;;;;;;;4.97;1.90;;;16.50;51.70;;;;;;4785997;30;20056;-94
2023/05/13 07:07:42;;;;;;;8.82;1.52;;;16.50;52.00;;;;;;4785307;30;20149;-93
2023/05/13 07:10:09;;;;;;;5.25;1.98;;;16.60;51.90;;;;;;4779919;29;20060;-92
2023/05/13 07:12:37;;;;;;;4.97;1.83;;;16.60;50.90;;;;;;4770440;30;20052;-91
2023/05/13 07:19:41;;;;;;;7.93;1.38;;;16.60;51.50;;;;;;4768422;30;20066;-92
2023/05/13 07:22:08;;;;;;;5.38;1.75;;;16.60;51.60;;;;;;4769653;30;20404;-93
2023/05/13 07:24:36;;;;;;;6.25;1.45;;;16.50;52.50;;;;;;4769631;30;20060;-92
2023/05/13 07:27:03;;;;;;;6.70;1.90;;;16.50;51.50;;;;;;4769652;30;20056;-93
2023/05/13 07:29:31;;;;;;;7.70;1.87;;;16.50;52.70;;;;;;4769972;30;20052;-92
2023/05/13 07:32:03;;;;;;;4.88;2.03;;;16.60;52.80;;;;;;4769762;30;20051;-92
2023/05/13 07:34:31;;;;;;;5.60;2.10;;;16.60;52.60;;;;;;4770175;30;20059;-92
2023/05/13 07:36:58;;;;;;;6.70;2.05;;;16.60;51.60;;;;;;4758137;30;20059;-94
2023/05/13 07:39:25;;;;;;;12.27;2.35;;;16.60;51.00;;;;;;4770003;30;20423;-94
2023/05/13 07:41:53;;;;;;;5.40;1.93;;;16.50;51.50;;;;;;4771084;30;20048;-94
2023/05/13 07:44:20;;;;;;;6.97;2.13;;;16.60;51.50;;;;;;4770109;30;20079;-93
2023/05/13 07:46:48;;;;;;;7.35;2.75;;;16.80;51.80;;;;;;4769338;30;20044;-93
2023/05/13 07:49:15;;;;;;;7.00;2.30;;;16.80;51.40;;;;;;4769561;30;20623;-92
2023/05/13 07:51:42;;;;;;;8.77;2.80;;;16.90;51.50;;;;;;4769461;30;20079;-92
2023/05/13 07:54:09;;;;;;;8.23;2.70;;;17.00;52.00;;;;;;4769795;30;20060;-93
2023/05/13 07:56:37;;;;;;;6.53;1.85;;;17.10;51.00;;;;;;4772534;30;20078;-94
2023/05/13 07:59:04;;;;;;;5.30;2.03;;;17.20;50.10;;;;;;4771580;30;20048;-96
2023/05/13 08:01:31;;;;;;;5.53;1.73;;;17.20;50.80;;;;;;4772803;30;20060;-93
2023/05/13 08:03:59;;;;;;;5.30;2.05;;;17.30;49.10;;;;;;4772922;30;20507;-93
2023/05/13 08:06:27;;;;;;;4.97;1.70;;;17.30;49.40;;;;;;4772947;30;20056;-92
2023/05/13 08:08:54;;;;;;;6.22;2.03;;;17.30;49.20;;;;;;4773392;30;20066;-92
2023/05/13 08:11:21;;;;;;;6.30;1.90;;;17.30;48.40;;;;;;4783752;29;20055;-91
2023/05/13 08:13:48;;;;;;;6.93;2.10;;;17.30;48.80;;;;;;4790404;29;20060;-92
2023/05/13 08:16:24;;;;;;;5.50;2.10;;;17.30;48.50;;;;;;4791048;30;20043;-92
2023/05/13 08:18:52;;;;;;;6.53;2.23;;;17.40;49.20;;;;;;4790411;30;20051;-93
2023/05/13 08:21:21;;;;;;;6.35;2.28;;;17.50;50.30;;;;;;4790387;30;20063;-92
2023/05/13 08:23:52;;;;;;;6.00;2.13;;;17.50;50.60;;;;;;4790916;30;20055;-92
2023/05/13 08:26:19;;;;;;;6.30;2.13;;;17.60;50.30;;;;;;4790803;30;20087;-91
2023/05/13 08:28:46;;;;;;;6.07;2.63;;;17.70;49.70;;;;;;4790256;30;20063;-92
2023/05/13 08:31:14;;;;;;;7.53;2.47;;;17.80;50.90;;;;;;4790307;30;20475;-93
2023/05/13 08:33:43;;;;;;;5.70;2.15;;;17.80;49.90;;;;;;4790728;30;20056;-92
2023/05/13 08:36:10;;;;;;;7.80;2.50;;;17.80;49.30;;;;;;4790430;30;20051;-93
2023/05/13 08:38:38;;;;;;;6.15;2.22;;;17.80;49.50;;;;;;4790255;30;20411;-94
2023/05/13 08:41:05;;;;;;;5.53;2.25;;;17.60;49.60;;;;;;4789945;30;20051;-92
2023/05/13 08:43:33;;;;;;;7.50;2.50;;;17.50;50.40;;;;;;4790515;30;20058;-91
2023/05/13 08:46:06;;;;;;;6.30;2.60;;;17.40;50.00;;;;;;4790113;30;20106;-92
2023/05/13 08:48:34;;;;;;;6.05;2.90;;;17.30;50.40;;;;;;4789880;29;20055;-89
2023/05/13 08:51:02;;;;;;;6.57;2.50;;;17.30;51.70;;;;;;4779574;30;20039;-90
2023/05/13 08:53:30;;;;;;;5.45;2.80;;;17.30;51.30;;;;;;4789221;29;20055;-90
2023/05/13 08:55:58;;;;;;;8.00;2.63;;;17.40;50.70;;;;;;4789258;29;20084;-92
2023/05/13 08:58:25;;;;;;;8.35;2.90;;;17.30;50.10;;;;;;4780988;29;20130;-90
2023/05/13 09:00:53;;;;;;;7.80;2.92;;;17.50;50.70;;;;;;4789466;30;20051;-90
2023/05/13 09:03:20;;;;;;;8.32;2.80;;;17.40;52.50;;;;;;4788048;29;20067;-91
2023/05/13 09:05:47;;;;;;;7.43;2.90;;;17.40;51.40;;;;;;4789644;30;20462;-91
2023/05/13 09:08:14;;;;;;;6.37;2.83;;;17.40;50.50;;;;;;4788606;29;20061;-91
2023/05/13 09:10:42;;;;;;;7.28;3.00;;;17.50;50.30;;;;;;4780069;29;20070;-90
2023/05/13 09:13:11;;;;;;;9.00;3.30;;;17.80;51.00;;;;;;4789333;29;20498;-93
2023/05/13 09:15:41;;;;;;;7.38;2.97;;;18.00;51.30;;;;;;4789686;29;20063;-93
2023/05/13 09:18:09;;;;;;;10.80;3.42;;;18.50;50.00;;;;;;4777771;29;20495;-93
2023/05/13 09:20:36;;;;;;;7.67;2.80;;;18.90;51.20;;;;;;4774246;30;20499;-91
2023/05/13 09:23:06;;;;;;;6.43;2.92;;;19.10;51.00;;;;;;4775483;29;20047;-92
2023/05/13 09:25:33;;;;;;;8.52;2.97;;;19.10;48.60;;;;;;4789149;30;20527;-92
2023/05/13 09:28:03;;;;;;;6.78;2.70;;;19.10;49.40;;;;;;4775911;29;20138;-92
2023/05/13 09:30:34;;;;;;;8.15;2.75;;;19.00;50.30;;;;;;4789144;29;20049;-91
2023/05/13 09:33:10;;;;;;;6.00;2.60;;;18.90;49.10;;;;;;4789557;29;20075;-96
2023/05/13 09:35:40;;;;;;;6.03;2.58;;;18.80;47.80;;;;;;4787816;29;20591;-93
2023/05/13 09:38:20;;;;;;;6.30;2.90;;;18.70;48.00;;;;;;4789083;29;20092;-95
2023/05/13 09:40:51;;;;;;;8.15;2.45;;;18.60;47.50;;;;;;4780758;30;20503;-94
2023/05/13 09:43:24;;;;;;;6.88;2.75;;;18.60;48.00;;;;;;4793365;30;20047;-92
2023/05/13 09:45:56;;;;;;;5.87;2.73;;;18.60;51.20;;;;;;4789051;30;20051;-91
2023/05/13 09:48:25;;;;;;;6.07;2.63;;;18.70;50.40;;;;;;4789435;29;20047;-95
2023/05/13 09:50:52;;;;;;;7.38;2.80;;;18.60;47.60;;;;;;4788999;30;20047;-93
2023/05/13 09:53:20;;;;;;;5.70;2.10;;;18.50;47.70;;;;;;4788750;30;20048;-92
2023/05/13 09:55:52;;;;;;;6.47;2.70;;;18.50;48.50;;;;;;4789350;30;20048;-95
2023/05/13 09:58:20;;;;;;;7.70;2.57;;;18.50;48.80;;;;;;4789261;30;20574;-93
2023/05/13 10:00:47;;;;;;;6.93;2.90;;;18.40;50.90;;;;;;4788944;30;20180;-93
2023/05/13 10:03:15;;;;;;;7.13;2.72;;;18.30;50.70;;;;;;4789536;30;20094;-94
2023/05/13 10:05:42;;;;;;;7.95;2.78;;;18.30;50.40;;;;;;4788953;29;20074;-94
2023/05/13 10:08:11;;;;;;;7.53;3.00;;;18.10;49.10;;;;;;4788900;30;20084;-93
2023/05/13 10:10:39;;;;;;;7.23;2.60;;;18.00;49.80;;;;;;4788780;30;20150;-93
2023/05/13 10:13:12;;;;;;;6.57;2.90;;;17.80;49.20;;;;;;4788746;30;20058;-92
2023/05/13 10:15:47;;;;;;;7.22;2.60;;;17.70;49.80;;;;;;4788915;30;20102;-93
2023/05/13 10:18:15;;;;;;;9.90;3.53;;;17.70;49.40;;;;;;4786144;29;20052;-94
2023/05/13 10:20:43;;;;;;;8.25;4.10;;;17.60;51.60;;;;;;4771800;30;20066;-93
2023/05/13 10:23:10;;;;;;;9.30;4.17;;;17.50;52.50;;;;;;4789324;30;20058;-94
2023/05/13 10:25:37;;;;;;;15.90;5.05;;;17.50;53.90;;;;;;4793068;29;20138;-92
2023/05/13 10:28:05;;;;;;;11.52;5.05;;;17.40;53.60;;;;;;4807051;29;20058;-93
2023/05/13 10:30:34;;;;;;;10.98;4.63;;;17.30;53.00;;;;;;4802085;29;20055;-93
2023/05/13 10:33:03;;;;;;;9.05;4.70;;;17.20;53.50;;;;;;4788867;30;20053;-92
2023/05/13 10:35:35;;;;;;;12.57;4.57;;;17.20;53.80;;;;;;4788840;30;20138;-93
2023/05/13 10:38:15;;;;;;;11.15;4.50;;;17.10;54.10;;;;;;4788543;30;20074;-93
2023/05/13 10:41:10;;;;;;;10.27;4.60;;;17.10;54.00;;;;;;4788831;30;20051;-92
2023/05/13 10:43:38;;;;;;;11.63;5.13;;;17.00;53.90;;;;;;4788632;30;20050;-92
2023/05/13 10:46:10;;;;;;;9.25;4.90;;;17.00;54.60;;;;;;4788661;30;20085;-92
2023/05/13 10:48:53;;;;;;;9.90;4.63;;;17.00;54.80;;;;;;4787961;30;20134;-92
2023/05/13 10:51:23;;;;;;;10.77;5.07;;;17.00;54.20;;;;;;4788247;30;20055;-93
2023/05/13 10:53:52;;;;;;;12.30;5.47;;;16.90;54.00;;;;;;4787773;29;20093;-92
2023/05/13 10:56:21;;;;;;;10.48;4.78;;;16.90;54.90;;;;;;4789376;29;20387;-92
2023/05/13 10:59:04;;;;;;;11.38;5.40;;;16.90;54.30;;;;;;4791696;29;20040;-91
2023/05/13 11:01:42;;;;;;;9.63;5.17;;;16.90;54.80;;;;;;4787755;30;20083;-92
2023/05/13 11:04:28;;;;;;;11.40;5.80;;;17.00;55.30;;;;;;4787684;29;20062;-91
2023/05/13 11:07:13;;;;;;;12.38;5.90;;;16.90;55.30;;;;;;4783610;30;20047;-92
2023/05/13 11:09:47;;;;;;;11.52;5.25;;;17.00;55.80;;;;;;4788349;29;20057;-89
2023/05/13 11:12:14;;;;;;;11.48;4.90;;;17.00;54.90;;;;;;4787968;29;20055;-91
2023/05/13 11:14:43;;;;;;;11.03;4.20;;;17.00;56.40;;;;;;4787095;29;20134;-91
2023/05/13 11:17:11;;;;;;;8.00;4.20;;;17.00;56.20;;;;;;4790850;29;20051;-90
2023/05/13 11:19:46;;;;;;;13.07;4.35;;;17.00;55.70;;;;;;4777070;29;20142;-91
2023/05/13 11:22:20;;;;;;;9.90;4.53;;;17.00;55.00;;;;;;4788574;29;20065;-93
2023/05/13 11:25:08;;;;;;;8.50;3.80;;;17.00;54.70;;;;;;4788356;30;20056;-94
2023/05/13 11:27:42;;;;;;;9.17;3.80;;;17.00;55.10;;;;;;4787610;30;20059;-93
2023/05/13 11:30:26;;;;;;;12.20;4.13;;;17.00;54.50;;;;;;4789235;29;20059;-92
2023/05/13 11:32:55;;;;;;;8.70;4.55;;;17.00;54.90;;;;;;4773537;30;20131;-92
2023/05/13 11:35:30;;;;;;;9.30;4.18;;;16.90;54.60;;;;;;4775862;30;20048;-92
2023/05/13 11:37:59;;;;;;;10.32;3.97;;;17.00;54.70;;;;;;4791777;30;20058;-94
2023/05/13 11:40:35;;;;;;;10.40;4.20;;;17.00;55.30;;;;;;4792286;30;20055;-93
2023/05/13 11:43:03;;;;;;;11.05;4.55;;;17.10;55.60;;;;;;4791794;30;20142;-91
2023/05/13 11:45:31;;;;;;;10.52;4.22;;;17.10;55.20;;;;;;4791230;30;20055;-91
2023/05/13 11:48:16;;;;;;;11.50;4.15;;;17.10;54.40;;;;;;4791251;30;20510;-90
2023/05/13 11:50:43;;;;;;;9.63;3.90;;;17.10;54.70;;;;;;4791064;30;20063;-91
2023/05/13 11:53:10;;;;;;;9.57;5.13;;;17.10;54.40;;;;;;4790857;30;20141;-91
2023/05/13 11:55:37;;;;;;;12.32;5.50;;;17.20;55.80;;;;;;4791181;30;20404;-91
2023/05/13 11:58:04;;;;;;;12.85;5.45;;;17.30;54.70;;;;;;4791148;30;20146;-92
2023/05/13 12:00:33;;;;;;;10.75;5.05;;;17.30;54.30;;;;;;4790773;30;20086;-91
2023/05/13 12:03:07;;;;;;;15.05;5.22;;;17.30;54.30;;;;;;4791152;30;20564;-93
2023/05/13 12:05:35;;;;;;;11.33;5.03;;;17.40;53.90;;;;;;4790554;29;20048;-92
2023/05/13 12:08:02;;;;;;;10.13;4.68;;;17.40;53.80;;;;;;4791014;30;20059;-92
2023/05/13 12:10:29;;;;;;;10.45;4.70;;;17.40;53.60;;;;;;4787536;29;20084;-92
2023/05/13 12:12:56;;;;;;;10.35;4.20;;;17.40;54.60;;;;;;4787764;30;20048;-92
2023/05/13 12:15:23;;;;;;;8.07;3.78;;;17.50;53.60;;;;;;4787870;30;20047;-92
2023/05/13 12:17:51;;;;;;;10.50;4.37;;;17.50;54.70;;;;;;4787754;30;20052;-92
2023/05/13 12:20:19;;;;;;;10.43;4.10;;;17.50;52.90;;;;;;4787861;30;20142;-92
2023/05/13 12:22:47;;;;;;;9.55;4.68;;;17.50;52.50;;;;;;4787764;30;20052;-92
2023/05/13 12:25:38;;;;;;;15.40;5.95;;;17.50;51.80;;;;;;4787304;30;20059;-92
2023/05/13 12:28:05;;;;;;;15.65;6.30;;;17.60;52.20;;;;;;4787389;30;20116;-92
2023/05/13 12:30:37;;;;;;;9.30;4.20;;;17.70;53.00;;;;;;4787742;30;20051;-92
2023/05/13 12:33:04;;;;;;;10.05;4.05;;;17.70;51.10;;;;;;4787205;30;20052;-92
2023/05/13 12:35:32;;;;;;;10.02;3.97;;;17.70;49.60;;;;;;4787503;30;20138;-92
2023/05/13 12:38:01;;;;;;;7.38;3.28;;;17.70;49.70;;;;;;4787352;30;20431;-92
2023/05/13 12:40:29;;;;;;;8.23;3.28;;;17.70;49.50;;;;;;4787500;30;20059;-93
2023/05/13 12:42:57;;;;;;;7.20;3.30;;;17.70;50.20;;;;;;4787638;30;20056;-92
2023/05/13 12:45:33;;;;;;;6.88;3.22;;;17.80;50.60;;;;;;4786061;29;20048;-92
2023/05/13 12:48:00;;;;;;;7.85;3.33;;;17.90;50.30;;;;;;4787554;30;20060;-92
2023/05/13 12:50:27;;;;;;;7.25;3.33;;;18.00;49.10;;;;;;4787060;30;20055;-92
2023/05/13 12:52:56;;;;;;;8.10;2.80;;;18.00;49.20;;;;;;4787079;30;20048;-92
2023/05/13 12:55:26;;;;;;;11.07;2.90;;;18.00;48.00;;;;;;4787232;30;20525;-93
2023/05/13 12:58:00;;;;;;;8.82;2.78;;;18.00;49.30;;;;;;4787363;30;20075;-92
2023/05/13 13:00:28;;;;;;;7.20;2.90;;;18.00;48.40;;;;;;4786967;30;20102;-93
2023/05/13 13:02:56;;;;;;;7.90;3.30;;;18.00;48.00;;;;;;4786864;30;20109;-92
2023/05/13 13:05:24;;;;;;;8.45;3.00;;;18.00;50.20;;;;;;4786983;30;20066;-92
2023/05/13 13:07:51;;;;;;;6.73;3.00;;;18.00;47.70;;;;;;4786707;30;20052;-92